sensor_id;sensor_type;location;lat;lon;timestamp;temperature;humidity
35682;DHT22;21805;51.022;4.782;2023-01-15T00:00:47;10.00;99.90
35682;DHT22;21805;51.022;4.782;2023-01-15T00:03:12;9.90;99.90
35682;DHT22;21805;51.022;4.782;2023-01-15T00:05:39;10.00;99.90
35682;DHT22;21805;51.022;4.782;2023-01-15T00:08:04;10.00;99.90
35682;DHT22;21805;51.022;4.782;2023-01-15T00:10:30;10.00;99.90
35682;DHT22;21805;51.022;4.782;2023-01-15T00:12:57;9.90;99.90
35682;DHT22;21805;51.022;4.782;2023-01-15T00:15:24;9.90;99.90
35682;DHT22;21805;51.022;4.782;2023-01-15T00:17:50;9.90;99.90
35682;DHT22;21805;51.022;4.782;2023-01-15T00:20:16;9.90;99.90
35682;DHT22;21805;51.022;4.782;2023-01-15T00:22:45;9.90;99.90
35682;DHT22;21805;51.022;4.782;2023-01-15T00:25:12;9.90;99.90
35682;DHT22;21805;51.022;4.782;2023-01-15T00:27:56;9.80;99.90
35682;DHT22;21805;51.022;4.782;2023-01-15T00:30:22;9.80;99.90
35682;DHT22;21805;51.022;4.782;2023-01-15T00:32:50;9.80;99.90
35682;DHT22;21805;51.022;4.782;2023-01-15T00:35:17;9.80;99.90
35682;DHT22;21805;51.022;4.782;2023-01-15T00:37:42;9.90;99.90
35682;DHT22;21805;51.022;4.782;2023-01-15T00:40:09;9.90;99.90
35682;DHT22;21805;51.022;4.782;2023-01-15T00:42:34;9.90;99.90
35682;DHT22;21805;51.022;4.782;2023-01-15T00:45:00;9.90;99.90
35682;DHT22;21805;51.022;4.782;2023-01-15T00:47:34;9.80;99.90
35682;DHT22;21805;51.022;4.782;2023-01-15T00:50:00;9.80;99.90
35682;DHT22;21805;51.022;4.782;2023-01-15T00:52:27;9.80;99.90
35682;DHT22;21805;51.022;4.782;2023-01-15T00:54:52;9.80;99.90
35682;DHT22;21805;51.022;4.782;2023-01-15T00:57:18;9.90;99.90
35682;DHT22;21805;51.022;4.782;2023-01-15T00:59:47;9.90;99.90
35682;DHT22;21805;51.022;4.782;2023-01-15T01:02:13;9.90;99.90
35682;DHT22;21805;51.022;4.782;2023-01-15T01:04:39;9.80;99.90
35682;DHT22;21805;51.022;4.782;2023-01-15T01:07:05;9.80;99.90
35682;DHT22;21805;51.022;4.782;2023-01-15T01:09:30;9.90;99.90
35682;DHT22;21805;51.022;4.782;2023-01-15T01:11:56;9.80;99.90
35682;DHT22;21805;51.022;4.782;2023-01-15T01:14:21;9.80;99.90
35682;DHT22;21805;51.022;4.782;2023-01-15T01:16:47;9.80;99.90
35682;DHT22;21805;51.022;4.782;2023-01-15T01:19:14;9.90;99.90
35682;DHT22;21805;51.022;4.782;2023-01-15T01:21:41;9.80;99.90
35682;DHT22;21805;51.022;4.782;2023-01-15T01:24:07;9.90;99.90
35682;DHT22;21805;51.022;4.782;2023-01-15T01:26:32;9.90;99.90
35682;DHT22;21805;51.022;4.782;2023-01-15T01:29:00;9.90;99.90
35682;DHT22;21805;51.022;4.782;2023-01-15T01:31:27;9.90;99.90
35682;DHT22;21805;51.022;4.782;2023-01-15T01:33:55;9.90;99.90
35682;DHT22;21805;51.022;4.782;2023-01-15T01:36:25;9.90;99.90
35682;DHT22;21805;51.022;4.782;2023-01-15T01:38:51;10.00;99.90
35682;DHT22;21805;51.022;4.782;2023-01-15T01:41:17;9.90;99.90
35682;DHT22;21805;51.022;4.782;2023-01-15T01:43:58;9.90;99.90
35682;DHT22;21805;51.022;4.782;2023-01-15T01:46:24;9.80;99.90
35682;DHT22;21805;51.022;4.782;2023-01-15T01:48:52;9.80;99.90
35682;DHT22;21805;51.022;4.782;2023-01-15T01:51:19;9.80;99.90
35682;DHT22;21805;51.022;4.782;2023-01-15T01:53:46;9.70;99.90
35682;DHT22;21805;51.022;4.782;2023-01-15T01:56:12;9.70;99.90
35682;DHT22;21805;51.022;4.782;2023-01-15T01:58:43;9.70;99.90
35682;DHT22;21805;51.022;4.782;2023-01-15T02:01:09;9.70;99.90
35682;DHT22;21805;51.022;4.782;2023-01-15T02:03:36;9.70;99.90
35682;DHT22;21805;51.022;4.782;2023-01-15T02:06:05;9.70;99.90
35682;DHT22;21805;51.022;4.782;2023-01-15T02:08:31;9.80;99.90
35682;DHT22;21805;51.022;4.782;2023-01-15T02:11:00;9.80;99.90
35682;DHT22;21805;51.022;4.782;2023-01-15T02:13:31;9.80;99.90
35682;DHT22;21805;51.022;4.782;2023-01-15T02:16:04;9.70;99.90
35682;DHT22;21805;51.022;4.782;2023-01-15T02:21:22;9.70;99.90
35682;DHT22;21805;51.022;4.782;2023-01-15T02:29:04;9.70;99.90
35682;DHT22;21805;51.022;4.782;2023-01-15T02:31:33;9.60;99.90
35682;DHT22;21805;51.022;4.782;2023-01-15T02:36:28;9.60;99.90
35682;DHT22;21805;51.022;4.782;2023-01-15T02:38:55;9.60;99.90
35682;DHT22;21805;51.022;4.782;2023-01-15T02:41:24;9.60;99.90
35682;DHT22;21805;51.022;4.782;2023-01-15T02:43:53;9.70;99.90
35682;DHT22;21805;51.022;4.782;2023-01-15T02:46:21;9.70;99.90
35682;DHT22;21805;51.022;4.782;2023-01-15T02:48:49;9.70;99.90
35682;DHT22;21805;51.022;4.782;2023-01-15T02:51:22;9.70;99.90
35682;DHT22;21805;51.022;4.782;2023-01-15T02:53:48;9.70;99.90
35682;DHT22;21805;51.022;4.782;2023-01-15T02:56:16;9.60;99.90
35682;DHT22;21805;51.022;4.782;2023-01-15T02:58:43;9.60;99.90
35682;DHT22;21805;51.022;4.782;2023-01-15T03:01:11;9.50;99.90
35682;DHT22;21805;51.022;4.782;2023-01-15T03:06:10;9.50;99.90
35682;DHT22;21805;51.022;4.782;2023-01-15T03:08:37;9.50;99.90
35682;DHT22;21805;51.022;4.782;2023-01-15T03:11:07;9.50;99.90
35682;DHT22;21805;51.022;4.782;2023-01-15T03:21:35;9.40;99.90
35682;DHT22;21805;51.022;4.782;2023-01-15T03:24:03;9.30;99.90
35682;DHT22;21805;51.022;4.782;2023-01-15T03:26:30;9.20;99.90
35682;DHT22;21805;51.022;4.782;2023-01-15T03:28:55;9.20;99.90
35682;DHT22;21805;51.022;4.782;2023-01-15T03:31:21;9.20;99.90
35682;DHT22;21805;51.022;4.782;2023-01-15T03:33:46;9.20;99.90
35682;DHT22;21805;51.022;4.782;2023-01-15T03:36:12;9.30;99.90
35682;DHT22;21805;51.022;4.782;2023-01-15T03:38:38;9.30;99.90
35682;DHT22;21805;51.022;4.782;2023-01-15T03:41:13;9.30;99.90
35682;DHT22;21805;51.022;4.782;2023-01-15T03:43:42;9.20;99.90
35682;DHT22;21805;51.022;4.782;2023-01-15T03:46:25;9.20;99.90
35682;DHT22;21805;51.022;4.782;2023-01-15T03:51:27;9.20;99.90
35682;DHT22;21805;51.022;4.782;2023-01-15T03:53:57;9.20;99.90
35682;DHT22;21805;51.022;4.782;2023-01-15T03:56:32;9.20;99.90
35682;DHT22;21805;51.022;4.782;2023-01-15T04:01:34;9.10;99.90
35682;DHT22;21805;51.022;4.782;2023-01-15T04:04:02;9.00;99.90
35682;DHT22;21805;51.022;4.782;2023-01-15T04:06:29;9.10;99.90
35682;DHT22;21805;51.022;4.782;2023-01-15T04:08:57;9.10;99.90
35682;DHT22;21805;51.022;4.782;2023-01-15T04:11:23;9.10;99.90
35682;DHT22;21805;51.022;4.782;2023-01-15T04:13:49;9.10;99.90
35682;DHT22;21805;51.022;4.782;2023-01-15T04:16:23;9.10;99.90
35682;DHT22;21805;51.022;4.782;2023-01-15T04:18:50;9.00;99.90
35682;DHT22;21805;51.022;4.782;2023-01-15T04:21:16;9.00;99.90
35682;DHT22;21805;51.022;4.782;2023-01-15T04:23:41;9.00;99.90
35682;DHT22;21805;51.022;4.782;2023-01-15T04:26:07;9.10;99.90
35682;DHT22;21805;51.022;4.782;2023-01-15T04:28:34;9.10;99.90
35682;DHT22;21805;51.022;4.782;2023-01-15T04:30:59;9.00;99.90
35682;DHT22;21805;51.022;4.782;2023-01-15T04:33:25;9.00;99.90
35682;DHT22;21805;51.022;4.782;2023-01-15T04:35:51;8.90;99.90
35682;DHT22;21805;51.022;4.782;2023-01-15T04:38:16;8.90;99.90
35682;DHT22;21805;51.022;4.782;2023-01-15T04:40:45;8.90;99.90
35682;DHT22;21805;51.022;4.782;2023-01-15T04:43:29;8.80;99.90
35682;DHT22;21805;51.022;4.782;2023-01-15T04:46:13;8.80;99.90
35682;DHT22;21805;51.022;4.782;2023-01-15T04:48:39;8.80;99.90
35682;DHT22;21805;51.022;4.782;2023-01-15T04:51:05;8.70;99.90
35682;DHT22;21805;51.022;4.782;2023-01-15T04:53:31;8.80;99.90
35682;DHT22;21805;51.022;4.782;2023-01-15T04:56:01;8.80;99.90
35682;DHT22;21805;51.022;4.782;2023-01-15T04:58:27;8.70;99.90
35682;DHT22;21805;51.022;4.782;2023-01-15T05:00:53;8.70;99.90
35682;DHT22;21805;51.022;4.782;2023-01-15T05:03:18;8.60;99.90
35682;DHT22;21805;51.022;4.782;2023-01-15T05:05:44;8.60;99.90
35682;DHT22;21805;51.022;4.782;2023-01-15T05:08:09;8.60;99.90
35682;DHT22;21805;51.022;4.782;2023-01-15T05:10:35;8.60;99.90
35682;DHT22;21805;51.022;4.782;2023-01-15T05:13:01;8.60;99.90
35682;DHT22;21805;51.022;4.782;2023-01-15T05:15:26;8.50;99.90
35682;DHT22;21805;51.022;4.782;2023-01-15T05:17:52;8.60;99.90
35682;DHT22;21805;51.022;4.782;2023-01-15T05:20:17;8.60;99.90
35682;DHT22;21805;51.022;4.782;2023-01-15T05:22:43;8.60;99.90
35682;DHT22;21805;51.022;4.782;2023-01-15T05:25:10;8.70;99.90
35682;DHT22;21805;51.022;4.782;2023-01-15T05:27:35;8.70;99.90
35682;DHT22;21805;51.022;4.782;2023-01-15T05:30:01;8.80;99.90
35682;DHT22;21805;51.022;4.782;2023-01-15T05:32:28;8.80;99.90
35682;DHT22;21805;51.022;4.782;2023-01-15T05:34:54;8.80;99.90
35682;DHT22;21805;51.022;4.782;2023-01-15T05:37:22;8.80;99.90
35682;DHT22;21805;51.022;4.782;2023-01-15T05:39:47;8.80;99.90
35682;DHT22;21805;51.022;4.782;2023-01-15T05:42:13;8.70;99.90
35682;DHT22;21805;51.022;4.782;2023-01-15T05:44:39;8.70;99.90
35682;DHT22;21805;51.022;4.782;2023-01-15T05:47:05;8.60;99.90
35682;DHT22;21805;51.022;4.782;2023-01-15T05:49:32;8.50;99.90
35682;DHT22;21805;51.022;4.782;2023-01-15T05:51:58;8.60;99.90
35682;DHT22;21805;51.022;4.782;2023-01-15T05:54:29;8.50;99.90
35682;DHT22;21805;51.022;4.782;2023-01-15T05:56:55;8.50;99.90
35682;DHT22;21805;51.022;4.782;2023-01-15T05:59:21;8.50;99.90
35682;DHT22;21805;51.022;4.782;2023-01-15T06:01:47;8.50;99.90
35682;DHT22;21805;51.022;4.782;2023-01-15T06:04:13;8.40;99.90
35682;DHT22;21805;51.022;4.782;2023-01-15T06:06:40;8.40;99.90
35682;DHT22;21805;51.022;4.782;2023-01-15T06:09:06;8.40;99.90
35682;DHT22;21805;51.022;4.782;2023-01-15T06:11:31;8.40;99.90
35682;DHT22;21805;51.022;4.782;2023-01-15T06:13:57;8.40;99.90
35682;DHT22;21805;51.022;4.782;2023-01-15T06:16:23;8.50;99.90
35682;DHT22;21805;51.022;4.782;2023-01-15T06:18:49;8.50;99.90
35682;DHT22;21805;51.022;4.782;2023-01-15T06:21:14;8.50;99.90
35682;DHT22;21805;51.022;4.782;2023-01-15T06:23:40;8.50;99.90
35682;DHT22;21805;51.022;4.782;2023-01-15T06:26:16;8.40;99.90
35682;DHT22;21805;51.022;4.782;2023-01-15T06:28:42;8.30;99.90
35682;DHT22;21805;51.022;4.782;2023-01-15T06:31:09;8.30;99.90
35682;DHT22;21805;51.022;4.782;2023-01-15T06:33:35;8.40;99.90
35682;DHT22;21805;51.022;4.782;2023-01-15T06:36:08;8.40;99.90
35682;DHT22;21805;51.022;4.782;2023-01-15T06:38:35;8.30;99.90
35682;DHT22;21805;51.022;4.782;2023-01-15T06:41:02;8.20;99.90
35682;DHT22;21805;51.022;4.782;2023-01-15T06:43:28;8.20;99.90
35682;DHT22;21805;51.022;4.782;2023-01-15T06:46:12;8.00;99.90
35682;DHT22;21805;51.022;4.782;2023-01-15T06:48:57;7.90;99.90
35682;DHT22;21805;51.022;4.782;2023-01-15T06:51:23;7.90;99.90
35682;DHT22;21805;51.022;4.782;2023-01-15T06:53:49;7.80;99.90
35682;DHT22;21805;51.022;4.782;2023-01-15T06:56:15;7.80;99.90
35682;DHT22;21805;51.022;4.782;2023-01-15T06:58:41;7.70;99.90
35682;DHT22;21805;51.022;4.782;2023-01-15T07:01:10;7.70;99.90
35682;DHT22;21805;51.022;4.782;2023-01-15T07:03:36;7.70;99.90
35682;DHT22;21805;51.022;4.782;2023-01-15T07:06:08;7.60;99.90
35682;DHT22;21805;51.022;4.782;2023-01-15T07:08:34;7.50;99.90
35682;DHT22;21805;51.022;4.782;2023-01-15T07:11:03;7.50;99.90
35682;DHT22;21805;51.022;4.782;2023-01-15T07:13:30;7.50;99.90
35682;DHT22;21805;51.022;4.782;2023-01-15T07:15:57;7.40;99.90
35682;DHT22;21805;51.022;4.782;2023-01-15T07:18:23;7.40;99.90
35682;DHT22;21805;51.022;4.782;2023-01-15T07:20:48;7.40;99.90
35682;DHT22;21805;51.022;4.782;2023-01-15T07:23:14;7.40;99.90
35682;DHT22;21805;51.022;4.782;2023-01-15T07:25:39;7.40;99.90
35682;DHT22;21805;51.022;4.782;2023-01-15T07:28:05;7.40;99.90
35682;DHT22;21805;51.022;4.782;2023-01-15T07:30:31;7.40;99.90
35682;DHT22;21805;51.022;4.782;2023-01-15T07:32:56;7.40;99.90
35682;DHT22;21805;51.022;4.782;2023-01-15T07:35:24;7.40;99.90
35682;DHT22;21805;51.022;4.782;2023-01-15T07:37:50;7.40;99.90
35682;DHT22;21805;51.022;4.782;2023-01-15T07:40:16;7.40;99.90
35682;DHT22;21805;51.022;4.782;2023-01-15T07:42:42;7.40;99.90
35682;DHT22;21805;51.022;4.782;2023-01-15T07:45:26;7.30;99.90
35682;DHT22;21805;51.022;4.782;2023-01-15T07:48:30;7.30;99.90
35682;DHT22;21805;51.022;4.782;2023-01-15T07:51:15;7.30;99.90
35682;DHT22;21805;51.022;4.782;2023-01-15T07:53:42;7.30;99.90
35682;DHT22;21805;51.022;4.782;2023-01-15T07:56:07;7.30;99.90
35682;DHT22;21805;51.022;4.782;2023-01-15T07:58:34;7.40;99.90
35682;DHT22;21805;51.022;4.782;2023-01-15T08:01:00;7.40;99.90
35682;DHT22;21805;51.022;4.782;2023-01-15T08:03:25;7.40;99.90
35682;DHT22;21805;51.022;4.782;2023-01-15T08:05:52;7.50;99.90
35682;DHT22;21805;51.022;4.782;2023-01-15T08:08:17;7.40;99.90
35682;DHT22;21805;51.022;4.782;2023-01-15T08:10:44;7.40;99.90
35682;DHT22;21805;51.022;4.782;2023-01-15T08:13:29;7.30;99.90
35682;DHT22;21805;51.022;4.782;2023-01-15T08:16:14;7.30;99.90
35682;DHT22;21805;51.022;4.782;2023-01-15T08:18:39;7.40;99.90
35682;DHT22;21805;51.022;4.782;2023-01-15T08:21:12;7.40;99.90
35682;DHT22;21805;51.022;4.782;2023-01-15T08:23:37;7.40;99.90
35682;DHT22;21805;51.022;4.782;2023-01-15T08:26:03;7.40;99.90
35682;DHT22;21805;51.022;4.782;2023-01-15T08:28:30;7.40;99.90
35682;DHT22;21805;51.022;4.782;2023-01-15T08:30:55;7.30;99.90
35682;DHT22;21805;51.022;4.782;2023-01-15T08:33:21;7.40;99.90
35682;DHT22;21805;51.022;4.782;2023-01-15T08:35:47;7.40;99.90
35682;DHT22;21805;51.022;4.782;2023-01-15T08:38:12;7.60;99.90
35682;DHT22;21805;51.022;4.782;2023-01-15T08:40:39;7.70;99.90
35682;DHT22;21805;51.022;4.782;2023-01-15T08:43:23;7.70;99.90
35682;DHT22;21805;51.022;4.782;2023-01-15T08:45:48;7.80;99.90
35682;DHT22;21805;51.022;4.782;2023-01-15T08:48:14;7.90;99.90
35682;DHT22;21805;51.022;4.782;2023-01-15T08:50:39;7.90;99.90
35682;DHT22;21805;51.022;4.782;2023-01-15T08:53:05;8.10;99.90
35682;DHT22;21805;51.022;4.782;2023-01-15T08:55:31;8.10;99.90
35682;DHT22;21805;51.022;4.782;2023-01-15T08:57:57;8.00;99.90
35682;DHT22;21805;51.022;4.782;2023-01-15T09:00:22;8.10;99.90
35682;DHT22;21805;51.022;4.782;2023-01-15T09:02:49;8.30;99.90
35682;DHT22;21805;51.022;4.782;2023-01-15T09:05:15;8.30;99.90
35682;DHT22;21805;51.022;4.782;2023-01-15T09:07:40;8.20;99.90
35682;DHT22;21805;51.022;4.782;2023-01-15T09:10:06;8.20;99.90
35682;DHT22;21805;51.022;4.782;2023-01-15T09:12:32;8.20;99.90
35682;DHT22;21805;51.022;4.782;2023-01-15T09:14:58;8.20;99.90
35682;DHT22;21805;51.022;4.782;2023-01-15T09:17:27;8.30;99.90
35682;DHT22;21805;51.022;4.782;2023-01-15T09:19:52;8.40;99.90
35682;DHT22;21805;51.022;4.782;2023-01-15T09:22:18;8.40;99.90
35682;DHT22;21805;51.022;4.782;2023-01-15T09:24:43;8.50;99.90
35682;DHT22;21805;51.022;4.782;2023-01-15T09:27:12;8.50;99.90
35682;DHT22;21805;51.022;4.782;2023-01-15T09:29:38;8.60;99.90
35682;DHT22;21805;51.022;4.782;2023-01-15T09:32:04;8.70;99.90
35682;DHT22;21805;51.022;4.782;2023-01-15T09:34:29;8.50;99.90
35682;DHT22;21805;51.022;4.782;2023-01-15T09:36:55;8.50;99.90
35682;DHT22;21805;51.022;4.782;2023-01-15T09:39:20;8.60;99.90
35682;DHT22;21805;51.022;4.782;2023-01-15T09:52:49;8.90;99.90
35682;DHT22;21805;51.022;4.782;2023-01-15T09:58:04;9.00;99.90
35682;DHT22;21805;51.022;4.782;2023-01-15T10:00:34;8.90;99.90
35682;DHT22;21805;51.022;4.782;2023-01-15T10:03:23;8.80;99.90
35682;DHT22;21805;51.022;4.782;2023-01-15T10:06:12;8.80;99.90
35682;DHT22;21805;51.022;4.782;2023-01-15T10:08:45;8.80;99.90
35682;DHT22;21805;51.022;4.782;2023-01-15T10:13:48;8.80;99.90
35682;DHT22;21805;51.022;4.782;2023-01-15T10:16:18;8.70;99.90
35682;DHT22;21805;51.022;4.782;2023-01-15T10:18:44;8.60;99.90
35682;DHT22;21805;51.022;4.782;2023-01-15T10:23:39;8.20;99.90
35682;DHT22;21805;51.022;4.782;2023-01-15T10:28:46;8.10;99.90
35682;DHT22;21805;51.022;4.782;2023-01-15T10:31:17;8.20;99.90
35682;DHT22;21805;51.022;4.782;2023-01-15T10:36:30;8.10;99.90
35682;DHT22;21805;51.022;4.782;2023-01-15T10:39:00;8.10;99.90
35682;DHT22;21805;51.022;4.782;2023-01-15T10:44:19;8.10;99.90
35682;DHT22;21805;51.022;4.782;2023-01-15T10:46:55;8.00;99.90
35682;DHT22;21805;51.022;4.782;2023-01-15T10:49:25;7.90;99.90
35682;DHT22;21805;51.022;4.782;2023-01-15T10:51:53;7.90;99.90
35682;DHT22;21805;51.022;4.782;2023-01-15T10:59:51;8.10;99.90
35682;DHT22;21805;51.022;4.782;2023-01-15T11:02:38;8.30;99.90
35682;DHT22;21805;51.022;4.782;2023-01-15T11:05:04;8.40;99.90
35682;DHT22;21805;51.022;4.782;2023-01-15T11:07:50;8.50;99.90
35682;DHT22;21805;51.022;4.782;2023-01-15T11:10:19;8.50;99.90
35682;DHT22;21805;51.022;4.782;2023-01-15T11:15:33;8.70;99.90
35682;DHT22;21805;51.022;4.782;2023-01-15T11:18:27;8.80;99.90
35682;DHT22;21805;51.022;4.782;2023-01-15T11:21:12;8.80;99.90
35682;DHT22;21805;51.022;4.782;2023-01-15T11:23:39;8.80;99.90
35682;DHT22;21805;51.022;4.782;2023-01-15T11:26:05;8.80;99.90
35682;DHT22;21805;51.022;4.782;2023-01-15T11:30:56;8.80;99.90
35682;DHT22;21805;51.022;4.782;2023-01-15T11:33:24;8.80;99.90
35682;DHT22;21805;51.022;4.782;2023-01-15T11:35:54;8.90;99.90
35682;DHT22;21805;51.022;4.782;2023-01-15T11:38:24;9.00;99.90
35682;DHT22;21805;51.022;4.782;2023-01-15T11:40:54;9.00;99.90
35682;DHT22;21805;51.022;4.782;2023-01-15T11:43:22;9.00;99.90
35682;DHT22;21805;51.022;4.782;2023-01-15T11:49:10;9.20;99.90
35682;DHT22;21805;51.022;4.782;2023-01-15T11:51:54;9.20;99.90
35682;DHT22;21805;51.022;4.782;2023-01-15T11:54:22;9.20;99.90
35682;DHT22;21805;51.022;4.782;2023-01-15T11:56:49;9.20;99.90
35682;DHT22;21805;51.022;4.782;2023-01-15T11:59:16;9.30;99.90
35682;DHT22;21805;51.022;4.782;2023-01-15T12:01:48;9.40;99.90
35682;DHT22;21805;51.022;4.782;2023-01-15T12:04:26;9.50;99.90
35682;DHT22;21805;51.022;4.782;2023-01-15T12:06:54;9.40;99.90
35682;DHT22;21805;51.022;4.782;2023-01-15T12:19:59;9.40;99.90
35682;DHT22;21805;51.022;4.782;2023-01-15T12:24:56;9.30;99.90
35682;DHT22;21805;51.022;4.782;2023-01-15T12:27:35;9.20;99.90
35682;DHT22;21805;51.022;4.782;2023-01-15T12:32:35;9.10;99.90
35682;DHT22;21805;51.022;4.782;2023-01-15T12:40:04;9.20;99.90
35682;DHT22;21805;51.022;4.782;2023-01-15T12:42:31;9.20;99.90
35682;DHT22;21805;51.022;4.782;2023-01-15T12:45:24;9.30;99.90
35682;DHT22;21805;51.022;4.782;2023-01-15T12:58:01;9.40;99.90
35682;DHT22;21805;51.022;4.782;2023-01-15T13:00:35;9.30;99.90
35682;DHT22;21805;51.022;4.782;2023-01-15T13:03:06;9.20;99.90
35682;DHT22;21805;51.022;4.782;2023-01-15T13:08:20;9.40;99.90
35682;DHT22;21805;51.022;4.782;2023-01-15T13:10:49;9.40;99.90
35682;DHT22;21805;51.022;4.782;2023-01-15T13:13:22;9.40;99.90
35682;DHT22;21805;51.022;4.782;2023-01-15T13:20:50;9.20;99.90
35682;DHT22;21805;51.022;4.782;2023-01-15T13:26:11;9.30;99.90
35682;DHT22;21805;51.022;4.782;2023-01-15T13:28:57;9.30;99.90
35682;DHT22;21805;51.022;4.782;2023-01-15T13:34:25;9.30;99.90
35682;DHT22;21805;51.022;4.782;2023-01-15T13:36:52;9.40;99.90
35682;DHT22;21805;51.022;4.782;2023-01-15T13:39:20;9.40;99.90
35682;DHT22;21805;51.022;4.782;2023-01-15T13:41:50;9.40;99.90
35682;DHT22;21805;51.022;4.782;2023-01-15T13:44:43;9.30;99.90
35682;DHT22;21805;51.022;4.782;2023-01-15T13:47:12;9.20;99.90
35682;DHT22;21805;51.022;4.782;2023-01-15T13:49:46;9.10;99.90
35682;DHT22;21805;51.022;4.782;2023-01-15T13:52:20;9.10;99.90
35682;DHT22;21805;51.022;4.782;2023-01-15T13:54:47;9.10;99.90
35682;DHT22;21805;51.022;4.782;2023-01-15T14:00:02;9.00;99.90
35682;DHT22;21805;51.022;4.782;2023-01-15T14:02:32;8.90;99.90
35682;DHT22;21805;51.022;4.782;2023-01-15T14:05:16;8.80;99.90
35682;DHT22;21805;51.022;4.782;2023-01-15T14:07:48;8.80;99.90
35682;DHT22;21805;51.022;4.782;2023-01-15T14:10:22;8.80;99.90
35682;DHT22;21805;51.022;4.782;2023-01-15T14:31:50;8.80;99.90
35682;DHT22;21805;51.022;4.782;2023-01-15T14:34:23;8.70;99.90
35682;DHT22;21805;51.022;4.782;2023-01-15T14:39:22;8.50;99.90
35682;DHT22;21805;51.022;4.782;2023-01-15T14:41:54;8.60;99.90
35682;DHT22;21805;51.022;4.782;2023-01-15T14:44:39;8.70;99.90
35682;DHT22;21805;51.022;4.782;2023-01-15T14:47:18;8.60;99.90
35682;DHT22;21805;51.022;4.782;2023-01-15T14:49:45;8.70;99.90
35682;DHT22;21805;51.022;4.782;2023-01-15T14:52:19;8.70;99.90
35682;DHT22;21805;51.022;4.782;2023-01-15T14:54:46;8.70;99.90
35682;DHT22;21805;51.022;4.782;2023-01-15T14:57:13;8.70;99.90
35682;DHT22;21805;51.022;4.782;2023-01-15T14:59:43;8.60;99.90
35682;DHT22;21805;51.022;4.782;2023-01-15T15:02:23;8.60;99.90
35682;DHT22;21805;51.022;4.782;2023-01-15T15:04:55;8.50;99.90
35682;DHT22;21805;51.022;4.782;2023-01-15T15:12:24;8.60;99.90
35682;DHT22;21805;51.022;4.782;2023-01-15T15:17:30;8.50;99.90
35682;DHT22;21805;51.022;4.782;2023-01-15T15:20:10;8.60;99.90
35682;DHT22;21805;51.022;4.782;2023-01-15T15:22:39;8.50;99.90
35682;DHT22;21805;51.022;4.782;2023-01-15T15:25:07;8.40;99.90
35682;DHT22;21805;51.022;4.782;2023-01-15T15:27:36;8.40;99.90
35682;DHT22;21805;51.022;4.782;2023-01-15T15:30:05;8.50;99.90
35682;DHT22;21805;51.022;4.782;2023-01-15T15:32:32;8.40;99.90
35682;DHT22;21805;51.022;4.782;2023-01-15T15:35:05;8.30;99.90
35682;DHT22;21805;51.022;4.782;2023-01-15T15:37:42;8.30;99.90
35682;DHT22;21805;51.022;4.782;2023-01-15T15:40:16;8.30;99.90
35682;DHT22;21805;51.022;4.782;2023-01-15T15:42:57;8.30;99.90
35682;DHT22;21805;51.022;4.782;2023-01-15T15:45:54;8.20;99.90
35682;DHT22;21805;51.022;4.782;2023-01-15T15:48:40;8.30;99.90
35682;DHT22;21805;51.022;4.782;2023-01-15T15:53:48;8.30;99.90
35682;DHT22;21805;51.022;4.782;2023-01-15T15:56:15;8.30;99.90
35682;DHT22;21805;51.022;4.782;2023-01-15T15:58:43;8.30;99.90
35682;DHT22;21805;51.022;4.782;2023-01-15T16:01:12;8.30;99.90
35682;DHT22;21805;51.022;4.782;2023-01-15T16:03:48;8.30;99.90
35682;DHT22;21805;51.022;4.782;2023-01-15T16:08:50;8.20;99.90
35682;DHT22;21805;51.022;4.782;2023-01-15T16:11:16;8.20;99.90
35682;DHT22;21805;51.022;4.782;2023-01-15T16:13:43;8.20;99.90
35682;DHT22;21805;51.022;4.782;2023-01-15T16:21:23;8.10;99.90
35682;DHT22;21805;51.022;4.782;2023-01-15T16:28:59;7.90;99.90
35682;DHT22;21805;51.022;4.782;2023-01-15T16:31:26;8.00;99.90
35682;DHT22;21805;51.022;4.782;2023-01-15T16:33:57;8.00;99.90
35682;DHT22;21805;51.022;4.782;2023-01-15T16:36:24;8.00;99.90
35682;DHT22;21805;51.022;4.782;2023-01-15T16:38:56;7.90;99.90
35682;DHT22;21805;51.022;4.782;2023-01-15T16:41:28;7.80;99.90
35682;DHT22;21805;51.022;4.782;2023-01-15T16:46:41;7.80;99.90
35682;DHT22;21805;51.022;4.782;2023-01-15T16:49:25;7.80;99.90
35682;DHT22;21805;51.022;4.782;2023-01-15T16:51:52;7.70;99.90
35682;DHT22;21805;51.022;4.782;2023-01-15T17:01:53;7.70;99.90
35682;DHT22;21805;51.022;4.782;2023-01-15T17:07:33;7.60;99.90
35682;DHT22;21805;51.022;4.782;2023-01-15T17:10:15;7.50;99.90
35682;DHT22;21805;51.022;4.782;2023-01-15T17:12:44;7.50;99.90
35682;DHT22;21805;51.022;4.782;2023-01-15T17:17:55;7.60;99.90
35682;DHT22;21805;51.022;4.782;2023-01-15T17:20:33;7.60;99.90
35682;DHT22;21805;51.022;4.782;2023-01-15T17:23:00;7.60;99.90
35682;DHT22;21805;51.022;4.782;2023-01-15T17:25:28;7.60;99.90
35682;DHT22;21805;51.022;4.782;2023-01-15T17:27:59;7.70;99.90
35682;DHT22;21805;51.022;4.782;2023-01-15T17:30:25;7.70;99.90
35682;DHT22;21805;51.022;4.782;2023-01-15T17:33:05;7.80;99.90
35682;DHT22;21805;51.022;4.782;2023-01-15T17:35:34;7.80;99.90
35682;DHT22;21805;51.022;4.782;2023-01-15T17:38:01;7.70;99.90
35682;DHT22;21805;51.022;4.782;2023-01-15T17:40:27;7.70;99.90
35682;DHT22;21805;51.022;4.782;2023-01-15T17:45:26;7.60;99.90
35682;DHT22;21805;51.022;4.782;2023-01-15T17:47:52;7.40;99.90
35682;DHT22;21805;51.022;4.782;2023-01-15T17:50:20;7.40;99.90
35682;DHT22;21805;51.022;4.782;2023-01-15T17:52:55;7.30;99.90
35682;DHT22;21805;51.022;4.782;2023-01-15T18:00:54;7.20;99.90
35682;DHT22;21805;51.022;4.782;2023-01-15T18:03:46;7.30;99.90
35682;DHT22;21805;51.022;4.782;2023-01-15T18:06:31;7.30;99.90
35682;DHT22;21805;51.022;4.782;2023-01-15T18:08:58;7.30;99.90
35682;DHT22;21805;51.022;4.782;2023-01-15T18:11:42;7.40;99.90
35682;DHT22;21805;51.022;4.782;2023-01-15T18:16:50;7.40;99.90
35682;DHT22;21805;51.022;4.782;2023-01-15T18:19:16;7.50;99.90
35682;DHT22;21805;51.022;4.782;2023-01-15T18:21:42;7.40;99.90
35682;DHT22;21805;51.022;4.782;2023-01-15T18:24:08;7.50;99.90
35682;DHT22;21805;51.022;4.782;2023-01-15T18:26:36;7.50;99.90
35682;DHT22;21805;51.022;4.782;2023-01-15T18:29:30;7.60;99.90
35682;DHT22;21805;51.022;4.782;2023-01-15T18:32:17;7.60;99.90
35682;DHT22;21805;51.022;4.782;2023-01-15T18:46:40;7.50;99.90
35682;DHT22;21805;51.022;4.782;2023-01-15T19:14:17;7.70;99.90
35682;DHT22;21805;51.022;4.782;2023-01-15T19:20:21;7.60;99.90
35682;DHT22;21805;51.022;4.782;2023-01-15T19:23:15;7.50;99.90
35682;DHT22;21805;51.022;4.782;2023-01-15T19:28:58;7.50;99.90
35682;DHT22;21805;51.022;4.782;2023-01-15T19:34:11;7.50;99.90
35682;DHT22;21805;51.022;4.782;2023-01-15T19:37:02;7.50;99.90
35682;DHT22;21805;51.022;4.782;2023-01-15T19:39:28;7.60;99.90
35682;DHT22;21805;51.022;4.782;2023-01-15T19:41:56;7.50;99.90
35682;DHT22;21805;51.022;4.782;2023-01-15T19:44:40;7.50;99.90
35682;DHT22;21805;51.022;4.782;2023-01-15T19:50:40;7.60;99.90
35682;DHT22;21805;51.022;4.782;2023-01-15T19:53:33;7.50;99.90
35682;DHT22;21805;51.022;4.782;2023-01-15T19:56:06;7.50;99.90